createdAt,value
2022-10-07T00:00:38.977Z,26.30
2022-10-07T00:05:47.054Z,23.87
2022-10-07T00:10:54.943Z,27.03
2022-10-07T00:16:06.929Z,31.33
2022-10-07T00:21:16.036Z,24.73
2022-10-07T00:26:25.548Z,28.50
2022-10-07T00:31:36.334Z,31.50
2022-10-07T00:36:44.167Z,26.07
2022-10-07T00:41:53.004Z,32.83
2022-10-07T00:47:03.422Z,32.43
2022-10-07T00:52:11.335Z,24.80
2022-10-07T00:57:19.259Z,29.43
2022-10-07T01:02:27.446Z,24.93
2022-10-07T01:07:35.881Z,26.97
2022-10-07T01:12:47.508Z,28.30
2022-10-07T01:17:59.912Z,27.00
2022-10-07T01:23:11.913Z,29.40
2022-10-07T01:28:23.417Z,24.77
2022-10-07T01:33:33.342Z,25.17
2022-10-07T01:38:44.551Z,24.23
2022-10-07T01:43:53.770Z,25.07
2022-10-07T01:49:02.339Z,24.43
2022-10-07T01:54:14.442Z,24.00
2022-10-07T01:59:25.768Z,23.10
2022-10-07T02:04:37.129Z,21.20
2022-10-07T02:09:47.663Z,23.33
2022-10-07T02:14:59.155Z,27.30
2022-10-07T02:20:08.319Z,19.27
2022-10-07T02:25:17.079Z,19.70
2022-10-07T02:30:26.095Z,20.13
2022-10-07T02:35:39.783Z,23.10
2022-10-07T02:46:04.019Z,21.90
2022-10-07T02:51:20.853Z,19.63
2022-10-07T02:56:26.959Z,17.43
2022-10-07T03:01:40.380Z,17.23
2022-10-07T03:06:48.296Z,17.27
2022-10-07T03:11:56.070Z,15.50
2022-10-07T03:17:04.310Z,13.90
2022-10-07T03:22:12.596Z,16.57
2022-10-07T03:27:21.183Z,16.47
2022-10-07T03:32:30.965Z,17.60
2022-10-07T03:37:38.968Z,19.07
2022-10-07T03:42:46.894Z,14.80
2022-10-07T03:47:54.915Z,21.07
2022-10-07T03:53:03.336Z,13.93
2022-10-07T03:58:12.911Z,19.10
2022-10-07T04:03:20.954Z,21.77
2022-10-07T04:08:32.610Z,15.47
2022-10-07T04:13:41.715Z,14.03
2022-10-07T04:18:50.909Z,16.97
2022-10-07T04:23:58.818Z,16.70
2022-10-07T04:29:08.837Z,14.00
2022-10-07T04:34:16.821Z,14.10
2022-10-07T04:39:42.763Z,17.47
2022-10-07T04:44:35.982Z,16.87
2022-10-07T04:49:48.719Z,16.90
2022-10-07T04:54:57.248Z,14.63
2022-10-07T05:00:06.501Z,14.57
2022-10-07T05:05:14.284Z,17.60
2022-10-07T05:10:23.229Z,13.67
2022-10-07T05:15:32.686Z,12.77
2022-10-07T05:20:42.181Z,16.90
2022-10-07T05:25:54.041Z,17.13
2022-10-07T05:31:04.363Z,21.07
2022-10-07T05:36:12.367Z,22.07
2022-10-07T05:41:22.438Z,26.00
2022-10-07T05:46:30.597Z,32.70
2022-10-07T05:51:38.449Z,34.97
2022-10-07T05:56:46.265Z,28.10
2022-10-07T06:01:55.761Z,28.63
2022-10-07T06:07:04.333Z,30.27
2022-10-07T06:12:13.894Z,28.83
2022-10-07T06:17:21.912Z,24.53
2022-10-07T06:22:29.737Z,26.90
2022-10-07T06:27:37.564Z,35.13
2022-10-07T06:32:45.556Z,49.63
2022-10-07T06:37:53.405Z,59.93
2022-10-07T06:43:01.497Z,69.00
2022-10-07T06:48:09.527Z,46.50
2022-10-07T06:53:18.097Z,54.43
2022-10-07T06:58:26.323Z,44.53
2022-10-07T07:03:35.376Z,29.20
2022-10-07T07:08:45.104Z,65.00
2022-10-07T07:13:54.706Z,30.97
2022-10-07T07:19:05.493Z,29.53
2022-10-07T07:24:15.420Z,38.50
2022-10-07T07:29:23.347Z,34.10
2022-10-07T07:34:32.868Z,40.70
2022-10-07T07:39:43.078Z,42.17
2022-10-07T07:44:51.985Z,35.67
2022-10-07T07:49:59.946Z,50.40
2022-10-07T07:55:08.522Z,42.57
2022-10-07T08:00:16.811Z,41.83
2022-10-07T08:05:25.490Z,49.70
2022-10-07T08:10:33.378Z,50.53
2022-10-07T08:15:43.793Z,43.27
2022-10-07T08:20:56.386Z,34.40
2022-10-07T08:26:04.512Z,25.10
2022-10-07T08:31:14.559Z,25.40
2022-10-07T08:36:23.457Z,23.27
2022-10-07T08:41:35.072Z,20.70
2022-10-07T08:46:46.366Z,18.77
2022-10-07T08:51:58.991Z,21.23
2022-10-07T08:57:10.086Z,17.03
2022-10-07T09:02:21.207Z,17.47
2022-10-07T09:07:34.023Z,14.07
2022-10-07T09:12:45.109Z,11.87
2022-10-07T09:17:56.783Z,14.73
2022-10-07T09:23:12.561Z,12.70
2022-10-07T09:28:25.755Z,11.90
2022-10-07T09:33:37.272Z,14.63
2022-10-07T09:38:46.790Z,10.17
2022-10-07T09:43:58.030Z,14.27
2022-10-07T09:49:06.051Z,9.80
2022-10-07T09:54:17.062Z,11.33
2022-10-07T09:59:29.024Z,12.50
2022-10-07T10:04:38.826Z,9.37
2022-10-07T10:09:50.151Z,10.77
2022-10-07T10:15:00.603Z,11.50
2022-10-07T10:20:11.799Z,11.47
2022-10-07T10:25:23.558Z,9.93
2022-10-07T10:30:31.507Z,10.77
2022-10-07T10:35:42.628Z,14.00
2022-10-07T10:46:09.587Z,11.17
2022-10-07T10:51:22.723Z,12.43
2022-10-07T10:56:35.101Z,13.43
2022-10-07T11:01:44.172Z,10.40
2022-10-07T11:06:55.753Z,11.40
2022-10-07T11:12:05.442Z,15.07
2022-10-07T11:17:13.374Z,11.53
2022-10-07T11:22:23.832Z,11.50
2022-10-07T11:27:34.037Z,8.90
2022-10-07T11:32:45.514Z,12.40
2022-10-07T11:37:58.068Z,14.80
2022-10-07T11:43:10.253Z,12.63
2022-10-07T11:48:21.437Z,13.57
2022-10-07T11:53:29.872Z,12.97
2022-10-07T11:58:40.100Z,7.13
2022-10-07T12:03:48.394Z,12.37
2022-10-07T12:08:56.691Z,17.93
2022-10-07T12:14:07.725Z,12.10
2022-10-07T12:19:19.810Z,10.47
2022-10-07T12:24:27.545Z,9.97
2022-10-07T12:29:38.643Z,9.80
2022-10-07T12:34:47.626Z,10.17
2022-10-07T12:39:55.525Z,5.57
2022-10-07T12:45:03.432Z,9.30
2022-10-07T12:50:14.482Z,9.60
2022-10-07T12:55:29.296Z,10.20
2022-10-07T13:00:34.435Z,10.30
2022-10-07T13:05:45.532Z,7.93
2022-10-07T13:10:57.067Z,10.07
2022-10-07T13:16:08.587Z,11.60
2022-10-07T13:21:20.248Z,12.50
2022-10-07T13:26:29.409Z,13.63
2022-10-07T13:31:37.359Z,13.93
2022-10-07T13:36:45.391Z,6.93
2022-10-07T13:41:56.864Z,7.67
2022-10-07T13:47:06.102Z,10.10
2022-10-07T13:52:17.568Z,11.93
2022-10-07T13:57:25.355Z,12.23
2022-10-07T14:02:37.619Z,10.90
2022-10-07T14:07:43.325Z,12.50
2022-10-07T14:12:51.963Z,13.57
2022-10-07T14:18:03.124Z,9.23
2022-10-07T14:23:15.231Z,11.73
2022-10-07T14:28:28.571Z,10.60
2022-10-07T14:33:41.324Z,8.63
2022-10-07T14:38:50.623Z,8.97
2022-10-07T14:44:00.499Z,7.60
2022-10-07T14:49:10.360Z,11.87
2022-10-07T14:54:20.036Z,8.03
2022-10-07T14:59:27.965Z,10.43
2022-10-07T15:04:36.562Z,12.03
2022-10-07T15:09:45.267Z,13.97
2022-10-07T15:14:53.164Z,9.67
2022-10-07T15:20:01.076Z,14.00
2022-10-07T15:25:10.780Z,13.10
2022-10-07T15:30:19.090Z,12.57
2022-10-07T15:35:28.034Z,10.37
2022-10-07T15:40:36.120Z,22.73
2022-10-07T15:45:46.233Z,18.57
2022-10-07T15:50:55.471Z,11.80
2022-10-07T15:56:03.327Z,8.57
2022-10-07T16:01:12.830Z,12.20
2022-10-07T16:06:23.669Z,13.73
2022-10-07T16:11:33.264Z,16.83
2022-10-07T16:16:42.557Z,13.40
2022-10-07T16:21:50.443Z,14.17
2022-10-07T16:26:59.130Z,26.33
2022-10-07T16:32:09.018Z,35.40
2022-10-07T16:37:17.555Z,41.70
2022-10-07T16:42:25.581Z,36.27
2022-10-07T16:47:33.947Z,37.27
2022-10-07T16:52:41.942Z,32.67
2022-10-07T16:57:51.188Z,37.00
2022-10-07T17:02:59.219Z,29.30
2022-10-07T17:08:07.817Z,29.87
2022-10-07T17:13:21.839Z,18.43
2022-10-07T17:18:28.896Z,22.83
2022-10-07T17:23:36.913Z,27.03
2022-10-07T17:28:44.979Z,24.13
2022-10-07T17:33:53.570Z,22.53
2022-10-07T17:39:01.602Z,36.43
2022-10-07T17:44:10.934Z,35.30
2022-10-07T17:49:23.059Z,46.87
2022-10-07T17:54:31.475Z,40.03
2022-10-07T17:59:42.347Z,39.30
2022-10-07T18:04:51.946Z,31.23
2022-10-07T18:10:00.595Z,29.47
2022-10-07T18:15:12.391Z,35.07
2022-10-07T18:20:21.830Z,33.70
2022-10-07T18:25:29.756Z,37.27
2022-10-07T18:30:38.790Z,31.23
2022-10-07T18:35:46.901Z,29.00
2022-10-07T18:40:55.777Z,29.97
2022-10-07T18:46:06.810Z,29.97
2022-10-07T18:51:14.915Z,29.63
2022-10-07T18:56:24.575Z,34.53
2022-10-07T19:01:33.385Z,30.70
2022-10-07T19:06:44.226Z,27.67
2022-10-07T19:11:52.609Z,36.53
2022-10-07T19:17:00.659Z,33.77
2022-10-07T19:22:09.916Z,30.40
2022-10-07T19:27:18.799Z,30.43
2022-10-07T19:32:27.127Z,26.87
2022-10-07T19:37:39.277Z,25.83
2022-10-07T19:42:48.781Z,27.77
2022-10-07T19:48:00.371Z,30.30
2022-10-07T19:53:10.222Z,32.40
2022-10-07T19:58:19.468Z,30.07
2022-10-07T20:03:29.194Z,26.57
2022-10-07T20:08:39.483Z,25.20
2022-10-07T20:13:47.601Z,21.30
2022-10-07T20:18:58.934Z,26.47
2022-10-07T20:24:07.979Z,21.70
2022-10-07T20:29:21.480Z,23.33
2022-10-07T20:34:27.640Z,22.27
2022-10-07T20:39:37.651Z,19.43
2022-10-07T20:44:47.271Z,23.10
2022-10-07T20:49:57.542Z,18.67
2022-10-07T20:55:07.071Z,20.53
2022-10-07T21:00:17.178Z,21.10
2022-10-07T21:05:25.506Z,21.90
2022-10-07T21:10:34.778Z,20.63
2022-10-07T21:15:42.786Z,17.83
2022-10-07T21:20:56.515Z,16.83
2022-10-07T21:26:02.719Z,17.07
2022-10-07T21:31:14.336Z,17.13
2022-10-07T21:36:24.979Z,16.37
2022-10-07T21:41:35.432Z,17.83
2022-10-07T21:46:45.744Z,16.60
2022-10-07T21:51:53.918Z,16.63
2022-10-07T21:57:04.614Z,19.17
2022-10-07T22:02:13.352Z,16.17
2022-10-07T22:07:22.824Z,14.67
2022-10-07T22:12:30.739Z,15.37
2022-10-07T22:17:38.696Z,17.47
2022-10-07T22:22:47.354Z,15.07
2022-10-07T22:27:56.394Z,13.03
2022-10-07T22:33:04.482Z,18.00
2022-10-07T22:38:12.571Z,16.03
2022-10-07T22:43:20.460Z,17.30
2022-10-07T22:48:30.595Z,15.53
2022-10-07T22:53:40.023Z,15.47
2022-10-07T22:58:51.288Z,12.67
2022-10-07T23:04:01.054Z,17.53
2022-10-07T23:09:10.069Z,16.07
2022-10-07T23:14:18.237Z,16.63
2022-10-07T23:19:28.372Z,20.43
2022-10-07T23:24:37.130Z,18.63
2022-10-07T23:29:45.233Z,15.57
2022-10-07T23:34:54.829Z,16.30
2022-10-07T23:40:03.640Z,19.03
2022-10-07T23:45:13.314Z,16.40
2022-10-07T23:50:21.409Z,18.90
2022-10-07T23:55:29.351Z,18.17
